ENBOENGM

Guest
Details From ENBO - BODO
To ENGM - Oslo Gardermoen
Flight Number -
Tags generated
Created
Modified
Stats Distance 441 nm / 818 km
Max Altitude 34,000 ft / 10,363 m
Waypoints 8
Social Downloads 0
Likes 0
Share VATSIM

Download

Looking for another format? Having issues loading an existing format? Contact us
Advertisement - Login to hide

Notes

Basic altitude profile: - Ascent Rate: 2000ft/min - Ascent Speed: 250kts - Cruise Altitude: 35000ft - Cruise Speed: 260kts - Descent Rate: 1500ft/min - Descent Speed: 250kts Options: - Use NATs: no - Use PACOTS: no - Use low airways: no - Use high airways: yes

Route

ENBO GIRAN UZ101 TGA UM609 MES ENGM

ID Type Via Altitude Latitude Longitude Leg Dist Tot Dist Heading (true) Name
O ENBO APT - 0 ft / 0 m 67.26849˚ 14.35677˚ - 0 nm - BODO
GIRAN FIX - 32,000 ft / 9,754 m 65.75000˚ 13.70083˚ 92 nm 92 nm 190° / 189° -
NUTKO FIX UZ101 (AWY-HI) 34,000 ft / 10,363 m 63.86917˚ 12.00000˚ 121 nm 213 nm 202° / 200° -
MERAK FIX UZ101 (AWY-HI) 34,000 ft / 10,363 m 63.41583˚ 11.62611˚ 28 nm 242 nm 200° / 200° -
TGA VOR UZ101 (AWY-HI) 28,500 ft / 8,687 m 62.46164˚ 10.87883˚ 60 nm 303 nm 200° / 199° TOLGA VOR-DME
TOGAT FIX UM609 (AWY-HI) 24,500 ft / 7,468 m 61.99944˚ 10.79283˚ 27 nm 331 nm 185° / 185° -
MES VOR UM609 (AWY-HI) 24,500 ft / 7,468 m 61.09981˚ 10.64278˚ 54 nm 385 nm 185° / 184° MESNALI VOR-DME
O ENGM APT - 0 ft / 0 m 60.19451˚ 11.09900˚ 56 nm 441 nm 166° / 166° Oslo Gardermoen

Altitude Profile

Advertisement - Login to hide

Weather


0- 5 10 15 20 25 30 35+ Temperature / ° C

Clouds and Precipitation
Forecast for 2017-12-12 00:00 UTC. Updated 2 hours ago

Ground ~20,000 ft ~40,000 ft Winds

ENBO

Details ICAO ENBO (BOO)
Name BODO
Region Norway
Timezone Europe/Oslo (UTC+1.0)
Stats Elevation 42 ft / 13 m (AMSL)
Location 67.268487° 14.356773°
Runways 1
Magnetic Variation 5.702° E

METAR

ENBO 112350Z 12007KT 070V180 CAVOK M02/M08 Q0999

Decode

TAF

TAF ENBO 112300Z 1200/1224 10012KT CAVOK= TAF ENDU 112300Z 1200/1224 VRB05KT 9999 FEW050 PROB30 TEMPO 1200/1209 0800 FZFG VV002

Decode

Departure Runways

ID Width Length Bearing (true) Bearing (mag) Surface Threshold Offset Overrun Length
07 148 ft / 45 m 11,096 ft / 3,382 m 77.83° 72.13° Concrete 1,969 ft / 600 m 984 ft / 300 m
25 148 ft / 45 m 11,096 ft / 3,382 m 257.90° 252.20° Concrete 0 ft / 0 m 486 ft / 148 m

ENGM

Details ICAO ENGM (OSL)
Name Oslo Gardermoen
Region Norway
Timezone Europe/Oslo (UTC+1.0)
Stats Elevation 681 ft / 208 m (AMSL)
Location 60.194507° 11.098998°
Runways 2
Magnetic Variation 3.384° E

METAR

ENGM 120020Z 36009KT 9999 FEW023 OVC031 M03/M06 Q0995

Decode

TAF

TAF ENGM 112300Z 1200/1224 02008KT 9999 SCT025

Decode

Destination Runways

ID Width Length Bearing (true) Bearing (mag) Surface Threshold Offset Overrun Length
01L 148 ft / 45 m 12,144 ft / 3,702 m 15.89° 12.51° Concrete 0 ft / 0 m 499 ft / 152 m
01R 148 ft / 45 m 10,014 ft / 3,052 m 15.89° 12.51° Concrete 0 ft / 0 m 499 ft / 152 m
19L 148 ft / 45 m 10,014 ft / 3,052 m 195.91° 192.53° Concrete 0 ft / 0 m 466 ft / 142 m
19R 148 ft / 45 m 12,144 ft / 3,702 m 195.91° 192.53° Concrete 0 ft / 0 m 482 ft / 147 m

Approach Navaids

Runway Type Ident Frequency Range Bearing (true) Bearing (mag) Slope Elevation
01L Localiser OBW 110.30 MHz 18 nm / 33 km 15.94° 12.55° - 709 ft / 216 m (AMSL)
01L Glidescope OBW 110.30 MHz 10 nm / 19 km 15.90° 12.52° 3.00° 681 ft / 208 m (AMSL)
01L DME OBW 110.30 MHz 18 nm / 33 km - - - 709 ft / 216 m (AMSL)
01R Localiser ONE 111.95 MHz 18 nm / 33 km 15.87° 12.48° - 723 ft / 220 m (AMSL)
01R Glidescope ONE 111.95 MHz 10 nm / 19 km 15.90° 12.52° 3.00° 681 ft / 208 m (AMSL)
01R DME ONE 111.95 MHz 18 nm / 33 km - - - 723 ft / 220 m (AMSL)
19L Localiser GME 110.55 MHz 18 nm / 33 km 196.08° 192.69° - 729 ft / 222 m (AMSL)
19L Glidescope GME 110.55 MHz 10 nm / 19 km 195.90° 192.52° 3.00° 681 ft / 208 m (AMSL)
19L DME GME 110.55 MHz 18 nm / 33 km - - - 729 ft / 222 m (AMSL)
19R Localiser GSW 111.30 MHz 18 nm / 33 km 195.97° 192.58° - 727 ft / 222 m (AMSL)
19R Glidescope GSW 111.30 MHz 10 nm / 19 km 195.90° 192.52° 3.00° 681 ft / 208 m (AMSL)
19R DME GSW 111.30 MHz 18 nm / 33 km - - - 727 ft / 222 m (AMSL)

Popular Alternatives